createdAt,value
2019-04-06T00:02:13.037Z,139.40
2019-04-06T00:04:42.351Z,142.33
2019-04-06T00:07:11.633Z,130.63
2019-04-06T00:09:40.944Z,130.27
2019-04-06T00:12:10.211Z,133.67
2019-04-06T00:14:39.516Z,142.53
2019-04-06T00:17:08.805Z,136.13
2019-04-06T00:19:38.150Z,130.30
2019-04-06T00:22:07.371Z,139.73
2019-04-06T00:24:36.642Z,136.87
2019-04-06T00:27:05.907Z,136.33
2019-04-06T00:29:35.191Z,146.80
2019-04-06T00:32:32.211Z,152.53
2019-04-06T00:35:01.527Z,141.63
2019-04-06T00:37:30.913Z,137.13
2019-04-06T00:40:00.225Z,140.63
2019-04-06T00:42:29.535Z,154.10
2019-04-06T00:44:58.821Z,154.57
2019-04-06T00:47:28.129Z,150.47
2019-04-06T00:49:57.427Z,141.03
2019-04-06T00:52:26.693Z,141.40
2019-04-06T00:54:56.039Z,150.53
2019-04-06T00:57:25.298Z,135.30
2019-04-06T00:59:54.563Z,137.93
2019-04-06T01:02:23.827Z,143.27
2019-04-06T01:04:53.093Z,148.40
2019-04-06T01:07:23.243Z,138.10
2019-04-06T01:09:51.598Z,140.40
2019-04-06T01:12:20.965Z,140.20
2019-04-06T01:14:50.217Z,143.27
2019-04-06T01:17:19.573Z,137.87
2019-04-06T01:19:48.868Z,144.43
2019-04-06T01:22:18.181Z,147.90
2019-04-06T01:24:47.471Z,143.80
2019-04-06T01:27:16.780Z,148.90
2019-04-06T01:29:46.007Z,133.80
2019-04-06T01:32:15.478Z,146.33
2019-04-06T01:34:44.737Z,143.80
2019-04-06T01:37:14.047Z,141.07
2019-04-06T01:39:43.371Z,154.63
2019-04-06T01:42:12.611Z,144.57
2019-04-06T01:44:41.903Z,134.20
2019-04-06T01:47:11.229Z,136.60
2019-04-06T01:49:40.628Z,139.40
2019-04-06T01:52:09.861Z,144.43
2019-04-06T01:54:39.113Z,132.73
2019-04-06T01:57:08.403Z,133.47
2019-04-06T01:59:37.671Z,134.87
2019-04-06T02:02:18.093Z,137.77
2019-04-06T02:04:47.349Z,125.43
2019-04-06T02:07:16.595Z,128.53
2019-04-06T02:09:45.885Z,128.87
2019-04-06T02:12:15.239Z,117.93
2019-04-06T02:14:44.526Z,127.73
2019-04-06T02:17:13.782Z,125.90
2019-04-06T02:19:43.057Z,113.87
2019-04-06T02:22:12.357Z,119.87
2019-04-06T02:24:41.633Z,131.13
2019-04-06T02:27:10.934Z,115.40
2019-04-06T02:29:40.218Z,132.90
2019-04-06T02:32:40.810Z,117.37
2019-04-06T02:35:21.975Z,130.70
2019-04-06T02:38:03.710Z,125.47
2019-04-06T02:40:44.041Z,130.57
2019-04-06T02:43:18.989Z,123.57
2019-04-06T02:45:48.233Z,130.53
2019-04-06T02:48:17.541Z,119.80
2019-04-06T02:50:46.890Z,115.33
2019-04-06T02:53:16.057Z,127.57
2019-04-06T02:55:45.342Z,135.13
2019-04-06T02:58:14.588Z,121.47
2019-04-06T03:00:43.899Z,124.77
2019-04-06T03:03:13.121Z,119.27
2019-04-06T03:05:42.390Z,124.07
2019-04-06T03:08:11.653Z,112.40
2019-04-06T03:10:41.061Z,113.60
2019-04-06T03:13:10.311Z,120.10
2019-04-06T03:15:39.440Z,118.97
2019-04-06T03:18:08.718Z,112.47
2019-04-06T03:20:37.977Z,109.70
2019-04-06T03:23:07.245Z,117.87
2019-04-06T03:25:36.666Z,112.23
2019-04-06T03:28:05.761Z,121.37
2019-04-06T03:30:34.984Z,118.50
2019-04-06T03:33:04.591Z,115.33
2019-04-06T03:35:33.534Z,126.80
2019-04-06T03:38:02.793Z,116.53
2019-04-06T03:40:32.155Z,111.33
2019-04-06T03:43:01.294Z,115.00
2019-04-06T03:45:30.555Z,118.53
2019-04-06T03:47:59.925Z,123.07
2019-04-06T03:50:29.130Z,117.97
2019-04-06T03:52:58.358Z,111.30
2019-04-06T03:55:27.586Z,125.07
2019-04-06T03:57:56.873Z,115.03
2019-04-06T04:00:26.173Z,117.17
2019-04-06T04:02:55.502Z,118.17
2019-04-06T04:05:24.915Z,107.23
2019-04-06T04:07:54.180Z,101.80
2019-04-06T04:10:31.178Z,118.67
2019-04-06T04:13:00.411Z,109.33
2019-04-06T04:15:29.657Z,118.47
2019-04-06T04:17:58.871Z,106.37
2019-04-06T04:20:28.157Z,104.60
2019-04-06T04:22:57.414Z,125.87
2019-04-06T04:25:26.683Z,112.47
2019-04-06T04:27:55.906Z,111.03
2019-04-06T04:30:32.293Z,108.20
2019-04-06T04:32:54.417Z,124.20
2019-04-06T04:35:23.835Z,107.57
2019-04-06T04:37:53.007Z,117.77
2019-04-06T04:40:22.282Z,107.77
2019-04-06T04:42:51.601Z,115.40
2019-04-06T04:45:20.884Z,116.33
2019-04-06T04:47:50.551Z,108.33
2019-04-06T04:50:19.487Z,112.93
2019-04-06T04:52:48.738Z,118.10
2019-04-06T04:55:18.089Z,109.03
2019-04-06T04:57:47.366Z,109.37
2019-04-06T05:00:16.708Z,109.33
2019-04-06T05:02:46.011Z,111.70
2019-04-06T05:05:15.232Z,120.77
2019-04-06T05:07:44.582Z,111.47
2019-04-06T05:10:13.888Z,115.07
2019-04-06T05:12:43.223Z,117.07
2019-04-06T05:15:13.494Z,129.10
2019-04-06T05:17:42.745Z,123.83
2019-04-06T05:20:12.019Z,118.60
2019-04-06T05:22:41.280Z,117.87
2019-04-06T05:25:10.525Z,119.43
2019-04-06T05:27:50.771Z,111.70
2019-04-06T05:30:09.001Z,118.13
2019-04-06T05:32:38.325Z,118.27
2019-04-06T05:35:07.748Z,111.60
2019-04-06T05:37:37.023Z,117.70
2019-04-06T05:40:06.416Z,106.73
2019-04-06T05:42:35.753Z,100.20
2019-04-06T05:45:05.871Z,96.70
2019-04-06T05:47:35.156Z,102.87
2019-04-06T05:50:04.906Z,97.57
2019-04-06T05:52:34.181Z,97.83
2019-04-06T05:55:03.551Z,96.00
2019-04-06T05:57:32.850Z,85.03
2019-04-06T06:00:02.005Z,94.20
2019-04-06T06:02:31.287Z,91.97
2019-04-06T06:05:01.279Z,90.70
2019-04-06T06:07:29.808Z,91.43
2019-04-06T06:09:59.031Z,87.00
2019-04-06T06:12:28.274Z,93.77
2019-04-06T06:15:00.178Z,93.13
2019-04-06T06:17:26.831Z,91.47
2019-04-06T06:19:56.027Z,90.47
2019-04-06T06:22:25.373Z,88.57
2019-04-06T06:24:54.645Z,87.83
2019-04-06T06:27:23.994Z,82.77
2019-04-06T06:29:53.384Z,77.33
2019-04-06T06:32:22.600Z,81.10
2019-04-06T20:15:33.538Z,26.40
2019-04-06T20:18:02.245Z,29.20
2019-04-06T20:20:31.528Z,26.67
2019-04-06T20:23:01.039Z,24.57
2019-04-06T20:25:30.645Z,27.30
2019-04-06T20:27:59.790Z,24.23
2019-04-06T20:30:29.049Z,29.37
2019-04-06T20:32:58.497Z,28.43
2019-04-06T20:35:27.840Z,27.27
2019-04-06T20:37:57.226Z,24.47
2019-04-06T20:40:26.554Z,25.83
2019-04-06T20:42:56.300Z,26.17
2019-04-06T20:45:25.153Z,22.83
2019-04-06T20:47:54.826Z,23.97
2019-04-06T20:50:23.754Z,23.53
2019-04-06T20:52:53.406Z,32.20
2019-04-06T20:55:22.480Z,27.40
2019-04-06T20:57:51.841Z,23.53
2019-04-06T21:00:21.129Z,26.80
2019-04-06T21:02:51.027Z,25.07
2019-04-06T21:05:19.718Z,22.77
2019-04-06T21:07:49.517Z,23.80
2019-04-06T21:10:19.061Z,27.20
2019-04-06T21:12:47.660Z,25.07
2019-04-06T21:15:20.952Z,21.50
2019-04-06T21:17:46.248Z,24.63
2019-04-06T21:20:15.781Z,24.27
2019-04-06T21:22:45.222Z,25.47
2019-04-06T21:25:14.738Z,22.83
2019-04-06T21:27:44.170Z,23.67
2019-04-06T21:30:13.495Z,22.40
2019-04-06T21:32:42.484Z,23.57
2019-04-06T21:35:11.543Z,24.17
2019-04-06T21:37:41.206Z,25.23
2019-04-06T21:40:10.202Z,26.03
2019-04-06T21:42:39.486Z,22.27
2019-04-06T21:45:09.381Z,21.50
2019-04-06T21:47:38.695Z,22.00
2019-04-06T21:50:08.557Z,27.20
2019-04-06T21:52:37.064Z,21.03
2019-04-06T21:55:06.165Z,25.40
2019-04-06T21:57:35.595Z,23.07
2019-04-06T22:00:05.749Z,23.70
2019-04-06T22:02:35.399Z,23.67
2019-04-06T22:05:04.543Z,26.27
2019-04-06T22:07:33.629Z,22.50
2019-04-06T22:10:02.732Z,24.13
2019-04-06T22:12:32.151Z,20.77
2019-04-06T22:15:01.309Z,20.43
2019-04-06T22:17:32.970Z,23.53
2019-04-06T22:20:00.003Z,21.33
2019-04-06T22:22:29.413Z,22.83
2019-04-06T22:24:58.712Z,24.30
2019-04-06T22:27:28.036Z,26.23
2019-04-06T22:29:57.320Z,24.13
2019-04-06T22:32:26.578Z,21.90
2019-04-06T22:34:55.907Z,22.53
2019-04-06T22:37:25.595Z,20.80
2019-04-06T22:39:54.486Z,22.27
2019-04-06T22:42:23.888Z,21.67
2019-04-06T22:45:08.509Z,24.70
2019-04-06T22:47:25.314Z,22.43
2019-04-06T22:49:54.622Z,24.73
2019-04-06T22:52:23.874Z,23.47
2019-04-06T22:54:52.678Z,22.63
2019-04-06T22:57:21.940Z,24.13
2019-04-06T22:59:51.289Z,23.07
2019-04-06T23:02:20.617Z,21.87
2019-04-06T23:05:00.112Z,21.90
2019-04-06T23:07:29.247Z,24.60
2019-04-06T23:09:58.732Z,21.87
2019-04-06T23:12:27.735Z,25.77
2019-04-06T23:14:56.912Z,25.07
2019-04-06T23:17:26.248Z,25.90
2019-04-06T23:19:55.629Z,24.67
2019-04-06T23:22:25.107Z,23.70
2019-04-06T23:24:54.790Z,21.67
2019-04-06T23:27:24.292Z,24.33
2019-04-06T23:29:53.413Z,22.70
2019-04-06T23:32:22.125Z,24.20
2019-04-06T23:34:58.778Z,27.70
2019-04-06T23:37:20.697Z,28.83
2019-04-06T23:39:50.453Z,20.90
2019-04-06T23:42:19.444Z,26.73
2019-04-06T23:44:48.768Z,20.77
2019-04-06T23:47:18.118Z,24.00
2019-04-06T23:49:47.122Z,23.83
2019-04-06T23:52:16.439Z,24.70
2019-04-06T23:54:46.254Z,24.00
2019-04-06T23:57:15.149Z,23.47
2019-04-06T23:59:44.413Z,24.00
